Terminal Aerodrome Forecast
Issued by NWS

Current Version | Previous Version | Text Only | Print | Product List | Glossary On
Versions: 1 2 3 4 5 6 7 8 9 10 11 12 13 14 15
185
FTUS42 KMLB 161124
TAFLEE
TAF
KLEE 161124Z 1612/1712 03005KT P6SM SCT025 BKN035
      TEMPO 1612/1614 BKN025
     FM161500 04006KT P6SM FEW025 BKN040
     FM170000 07004KT P6SM FEW040 BKN250=

USA.gov is the U.S. government's official web portal to all federal, state and local government web resources and services.